createdAt,value
2017-04-05T00:00:38.922Z,4.89
2017-04-05T00:02:01.357Z,4.97
2017-04-05T00:03:23.193Z,4.89
2017-04-05T00:04:45.664Z,4.91
2017-04-05T00:06:07.854Z,4.78
2017-04-05T00:07:30.009Z,4.75
2017-04-05T00:08:52.134Z,4.7
2017-04-05T00:10:14.261Z,4.63
2017-04-05T00:11:36.416Z,4.65
2017-04-05T00:12:58.282Z,4.77
2017-04-05T00:14:20.455Z,4.73
2017-04-05T00:15:42.945Z,4.73
2017-04-05T00:17:04.768Z,4.73
2017-04-05T00:18:26.927Z,4.7
2017-04-05T00:19:49.053Z,4.7
2017-04-05T00:21:11.343Z,4.66
2017-04-05T00:22:33.216Z,4.69
2017-04-05T00:23:55.345Z,4.69
2017-04-05T00:25:17.812Z,4.69
2017-04-05T00:26:39.920Z,4.82
2017-04-05T00:28:01.747Z,4.7
2017-04-05T00:29:23.573Z,4.7
2017-04-05T00:30:45.432Z,4.62
2017-04-05T00:32:08.307Z,4.7
2017-04-05T00:33:30.228Z,4.6
2017-04-05T00:34:52.076Z,4.6
2017-04-05T00:36:13.593Z,4.5
2017-04-05T00:37:36.039Z,4.5
2017-04-05T00:38:58.179Z,4.45
2017-04-05T00:40:19.687Z,4.45
2017-04-05T00:41:41.188Z,4.4
2017-04-05T00:43:04.077Z,4.32
2017-04-05T00:44:25.912Z,4.36
2017-04-05T00:45:48.068Z,4.22
2017-04-05T00:47:09.886Z,4.22
2017-04-05T00:48:32.437Z,4.2
2017-04-05T00:49:54.260Z,4.29
2017-04-05T00:51:16.531Z,4.15
2017-04-05T00:52:38.658Z,4.23
2017-04-05T00:54:01.437Z,4.12
2017-04-05T00:55:23.269Z,4.12
2017-04-05T00:56:45.409Z,4.11
2017-04-05T00:58:06.909Z,4.06
2017-04-05T00:59:28.838Z,4.08
2017-04-05T01:00:51.348Z,4
2017-04-05T01:02:13.586Z,3.97
2017-04-05T01:03:35.073Z,3.93
2017-04-05T01:04:57.197Z,4.04
2017-04-05T01:06:18.693Z,3.98
2017-04-05T01:07:40.507Z,4
2017-04-05T01:09:01.675Z,3.96
2017-04-05T01:10:23.894Z,3.94
2017-04-05T01:11:46.165Z,3.88
2017-04-05T01:13:08.037Z,3.9
2017-04-05T01:14:30.172Z,3.94
2017-04-05T01:15:52.914Z,3.88
2017-04-05T01:17:14.444Z,4.04
2017-04-05T01:18:36.357Z,3.97
2017-04-05T01:19:58.173Z,3.94
2017-04-05T01:21:20.640Z,3.9
2017-04-05T01:22:43.129Z,3.87
2017-04-05T01:24:04.948Z,3.87
2017-04-05T01:25:27.398Z,3.83
2017-04-05T01:26:49.224Z,3.8
2017-04-05T01:28:11.156Z,3.75
2017-04-05T01:29:32.675Z,3.69
2017-04-05T01:30:54.506Z,3.61
2017-04-05T01:32:16.610Z,3.6
2017-04-05T01:33:38.437Z,3.58
2017-04-05T01:35:00.585Z,3.58
2017-04-05T01:36:23.019Z,3.55
2017-04-05T01:37:46.330Z,3.51
2017-04-05T01:39:08.478Z,3.48
2017-04-05T01:40:30.594Z,3.42
2017-04-05T01:41:52.409Z,3.39
2017-04-05T01:43:15.158Z,3.45
2017-04-05T01:44:37.617Z,3.43
2017-04-05T01:45:59.762Z,3.5
2017-04-05T01:47:22.245Z,3.43
2017-04-05T01:48:44.708Z,3.4
2017-04-05T01:50:07.170Z,3.5
2017-04-05T01:51:29.305Z,3.51
2017-04-05T01:52:51.102Z,3.52
2017-04-05T01:54:13.608Z,3.58
2017-04-05T01:55:35.167Z,3.45
2017-04-05T01:56:57.383Z,3.42
2017-04-05T01:58:19.547Z,3.33
2017-04-05T01:59:42.377Z,3.52
2017-04-05T02:01:04.511Z,3.4
2017-04-05T02:02:26.409Z,3.48
2017-04-05T02:03:47.925Z,3.39
2017-04-05T02:05:10.094Z,3.42
2017-04-05T02:06:31.627Z,3.35
2017-04-05T02:07:54.158Z,3.32
2017-04-05T02:09:16.002Z,3.28
2017-04-05T02:10:37.816Z,3.24
2017-04-05T02:12:00.039Z,3.2
2017-04-05T02:13:22.165Z,3.17
2017-04-05T02:14:43.967Z,3.32
2017-04-05T02:16:05.749Z,3.31
2017-04-05T02:17:27.699Z,3.42
2017-04-05T02:18:49.847Z,3.35
2017-04-05T02:20:11.791Z,3.42
2017-04-05T02:21:33.918Z,3.42
2017-04-05T02:22:56.371Z,3.47
2017-04-05T02:24:18.828Z,3.39
2017-04-05T02:25:40.817Z,3.43
2017-04-05T02:27:02.947Z,3.45
2017-04-05T02:28:25.070Z,3.48
2017-04-05T02:29:46.587Z,3.48
2017-04-05T02:31:08.423Z,3.6
2017-04-05T02:32:30.669Z,3.66
2017-04-05T02:33:52.278Z,3.55
2017-04-05T02:35:14.424Z,3.57
2017-04-05T02:36:35.928Z,3.58
2017-04-05T02:37:58.726Z,3.61
2017-04-05T02:39:20.685Z,3.72
2017-04-05T02:40:42.814Z,3.54
2017-04-05T02:42:04.008Z,3.54
2017-04-05T02:43:26.826Z,3.4
2017-04-05T02:44:48.005Z,3.43
2017-04-05T02:46:10.128Z,3.45
2017-04-05T02:47:32.265Z,3.54
2017-04-05T02:48:54.084Z,3.75
2017-04-05T02:50:15.897Z,3.66
2017-04-05T02:51:37.490Z,3.62
2017-04-05T02:52:59.627Z,3.66
2017-04-05T02:54:21.497Z,3.54
2017-04-05T02:55:43.950Z,3.58
2017-04-05T02:57:05.754Z,3.6
2017-04-05T02:58:27.958Z,3.66
2017-04-05T02:59:50.757Z,3.57
2017-04-05T03:01:13.225Z,3.62
2017-04-05T03:02:34.725Z,3.54
2017-04-05T03:03:56.527Z,3.65
2017-04-05T03:05:18.389Z,3.65
2017-04-05T03:06:40.227Z,3.6
2017-04-05T03:08:02.060Z,3.68
2017-04-05T03:09:24.422Z,3.52
2017-04-05T03:10:46.912Z,3.6
2017-04-05T03:12:08.730Z,3.72
2017-04-05T03:13:30.859Z,3.66
2017-04-05T03:14:52.728Z,3.62
2017-04-05T03:16:14.361Z,3.6
2017-04-05T03:17:36.497Z,3.75
2017-04-05T03:18:58.207Z,3.62
2017-04-05T03:20:20.347Z,3.79
2017-04-05T03:21:41.853Z,3.76
2017-04-05T03:23:03.986Z,3.79
2017-04-05T03:24:25.827Z,3.76
2017-04-05T03:25:48.259Z,3.78
2017-04-05T03:27:10.483Z,3.75
2017-04-05T03:28:32.305Z,3.83
2017-04-05T03:29:53.792Z,3.87
2017-04-05T03:31:15.610Z,3.86
2017-04-05T03:32:37.571Z,3.87
2017-04-05T03:33:59.366Z,3.83
2017-04-05T03:35:21.213Z,3.86
2017-04-05T03:36:43.037Z,3.87
2017-04-05T03:38:05.170Z,3.87
2017-04-05T03:39:26.378Z,3.88
2017-04-05T03:40:47.879Z,3.76
2017-04-05T03:42:10.056Z,3.66
2017-04-05T03:43:32.862Z,3.57
2017-04-05T03:44:55.030Z,3.52
2017-04-05T03:46:16.847Z,3.57
2017-04-05T03:47:38.659Z,3.57
2017-04-05T03:49:01.159Z,3.47
2017-04-05T03:50:23.274Z,3.4
2017-04-05T03:51:44.818Z,3.4
2017-04-05T03:53:06.956Z,3.4
2017-04-05T03:54:29.385Z,3.45
2017-04-05T03:55:51.534Z,3.39
2017-04-05T03:57:13.081Z,3.43
2017-04-05T03:58:35.235Z,3.43
2017-04-05T03:59:57.085Z,3.42
2017-04-05T04:01:18.889Z,3.33
2017-04-05T04:02:40.720Z,3.29
2017-04-05T04:04:02.876Z,3.33
2017-04-05T04:05:25.357Z,3.28
2017-04-05T04:06:47.184Z,3.33
2017-04-05T04:08:08.761Z,3.36
2017-04-05T04:09:30.377Z,3.28
2017-04-05T04:10:52.227Z,3.31
2017-04-05T04:12:14.079Z,3.32
2017-04-05T04:13:36.515Z,3.35
2017-04-05T04:14:58.648Z,3.33
2017-04-05T04:16:20.447Z,3.42
2017-04-05T04:17:42.972Z,3.33
2017-04-05T04:19:04.854Z,3.28
2017-04-05T04:20:26.649Z,3.36
2017-04-05T04:21:49.099Z,3.2
2017-04-05T04:23:10.928Z,3.23
2017-04-05T04:24:33.076Z,3.14
2017-04-05T04:25:54.577Z,3.14
2017-04-05T04:27:17.054Z,3
2017-04-05T04:28:38.566Z,3.03
2017-04-05T04:30:00.758Z,3.33
2017-04-05T04:31:22.895Z,3.45
2017-04-05T04:32:45.347Z,3.62
2017-04-05T04:34:06.629Z,3.78
2017-04-05T04:35:29.113Z,3.79
2017-04-05T04:36:51.239Z,3.84
2017-04-05T04:38:13.388Z,3.79
2017-04-05T04:39:35.841Z,3.79
2017-04-05T04:40:58.015Z,3.83
2017-04-05T04:42:19.858Z,3.76
2017-04-05T04:43:41.360Z,3.66
2017-04-05T04:45:03.502Z,3.62
2017-04-05T04:46:25.627Z,3.73
2017-04-05T04:47:47.145Z,3.69
2017-04-05T04:49:09.904Z,3.61
2017-04-05T04:50:31.717Z,3.66
2017-04-05T04:51:53.856Z,3.65
2017-04-05T04:53:16.009Z,3.69
2017-04-05T04:54:38.890Z,3.83
2017-04-05T04:56:01.037Z,3.79
2017-04-05T04:57:22.967Z,3.86
2017-04-05T04:58:44.456Z,3.97
2017-04-05T05:00:05.933Z,3.96
2017-04-05T05:01:28.097Z,4.2
2017-04-05T05:02:49.607Z,4.3
2017-04-05T05:04:11.117Z,4.42
2017-04-05T05:05:32.653Z,4.6
2017-04-05T05:06:54.162Z,4.58
2017-04-05T05:08:16.285Z,4.5
2017-04-05T05:09:38.125Z,4.6
2017-04-05T05:10:59.656Z,4.73
2017-04-05T05:12:22.125Z,4.85
2017-04-05T05:13:44.098Z,4.88
2017-04-05T05:15:06.708Z,5.07
2017-04-05T05:16:29.227Z,5.1
2017-04-05T05:17:51.102Z,5.25
2017-04-05T05:19:12.927Z,5.45
2017-04-05T05:20:34.748Z,5.43
2017-04-05T05:21:57.383Z,5.49
2017-04-05T05:23:19.203Z,5.48
2017-04-05T05:24:41.734Z,5.53
2017-04-05T05:26:03.594Z,5.53
2017-04-05T05:27:25.768Z,5.54
2017-04-05T05:28:47.691Z,5.57
2017-04-05T05:30:09.917Z,5.54
2017-04-05T05:31:31.757Z,5.56
2017-04-05T05:32:53.048Z,5.61
2017-04-05T05:34:14.884Z,5.68
2017-04-05T05:35:37.147Z,5.64
2017-04-05T05:36:59.313Z,5.74
2017-04-05T05:38:21.798Z,5.89
2017-04-05T05:39:43.671Z,5.9
2017-04-05T05:41:06.166Z,5.94
2017-04-05T05:42:28.010Z,6
2017-04-05T05:43:49.867Z,6.11
2017-04-05T05:45:12.019Z,6.25
2017-04-05T05:46:33.975Z,6.33
2017-04-05T05:47:56.198Z,6.31
2017-04-05T05:49:18.415Z,6.52
2017-04-05T05:50:40.012Z,6.56
2017-04-05T05:52:01.918Z,6.67
2017-04-05T05:53:23.475Z,6.79
2017-04-05T05:54:45.269Z,6.87
2017-04-05T05:56:07.083Z,6.94
2017-04-05T05:57:29.228Z,6.98
2017-04-05T05:58:51.055Z,6.95
2017-04-05T06:00:12.899Z,7.06
2017-04-05T06:01:35.497Z,7.2
2017-04-05T06:02:57.654Z,7.2
2017-04-05T06:04:19.896Z,7.25
2017-04-05T06:05:42.096Z,7.42
2017-04-05T06:07:04.044Z,7.46
2017-04-05T06:08:26.103Z,7.46
2017-04-05T06:09:48.248Z,7.48
2017-04-05T06:11:10.699Z,7.57
2017-04-05T06:12:32.199Z,7.58
2017-04-05T06:13:54.036Z,7.57
2017-04-05T06:15:15.996Z,7.53
2017-04-05T06:16:38.130Z,7.71
2017-04-05T06:18:00.576Z,7.74
2017-04-05T06:19:22.710Z,7.68
2017-04-05T06:20:44.857Z,7.79
2017-04-05T06:22:06.710Z,7.82
2017-04-05T06:23:28.598Z,7.71
2017-04-05T06:24:50.427Z,7.61
2017-04-05T06:26:11.945Z,7.77
2017-04-05T06:27:34.132Z,7.77
2017-04-05T06:28:56.275Z,7.85
2017-04-05T06:30:18.115Z,7.8
2017-04-05T06:31:40.560Z,7.86
2017-04-05T06:33:02.385Z,7.9
2017-04-05T06:34:24.627Z,8
2017-04-05T06:35:46.468Z,8.16
2017-04-05T06:37:08.608Z,8.15
2017-04-05T06:38:30.435Z,8.2
2017-04-05T06:39:52.592Z,8.18
2017-04-05T06:41:14.083Z,8.11
2017-04-05T06:42:36.527Z,8.07
2017-04-05T06:43:58.817Z,8.12
2017-04-05T06:45:21.280Z,8.11
2017-04-05T06:46:42.819Z,8.12
2017-04-05T06:48:04.676Z,8.15
2017-04-05T06:49:26.805Z,8.2
2017-04-05T06:50:48.698Z,8.18
2017-04-05T06:52:10.629Z,8.16
2017-04-05T06:53:32.789Z,8.15
2017-04-05T06:54:55.553Z,8.18
2017-04-05T06:56:17.376Z,8.12
2017-04-05T06:57:39.246Z,8.19
2017-04-05T06:59:01.449Z,8.2
2017-04-05T07:00:23.595Z,8.16
2017-04-05T07:01:45.107Z,8.33
2017-04-05T07:03:06.929Z,8.48
2017-04-05T07:04:28.847Z,8.84
2017-04-05T07:05:51.273Z,8.96
2017-04-05T07:07:13.089Z,9.24
2017-04-05T07:08:35.221Z,9.6
2017-04-05T07:09:56.425Z,9.72
2017-04-05T07:11:18.880Z,10.02
2017-04-05T07:12:41.078Z,10.09
2017-04-05T07:14:02.907Z,10.12
2017-04-05T07:15:24.722Z,10.34
2017-04-05T07:16:46.835Z,10.41
2017-04-05T07:18:08.037Z,10.29
2017-04-05T07:19:29.970Z,10.3
2017-04-05T07:20:52.050Z,10.44
2017-04-05T07:22:14.276Z,10.6
2017-04-05T07:23:36.114Z,11.15
2017-04-05T07:24:57.714Z,11.58
2017-04-05T07:26:19.322Z,11.91
2017-04-05T07:27:41.466Z,12.05
2017-04-05T07:29:03.300Z,12.2
2017-04-05T07:30:25.238Z,12.07
2017-04-05T07:31:46.438Z,11.73
2017-04-05T07:33:08.601Z,11.54
2017-04-05T07:34:30.738Z,11.27
2017-04-05T07:35:52.908Z,11.1
2017-04-05T07:37:14.941Z,10.99
2017-04-05T07:38:37.116Z,10.96
2017-04-05T07:39:58.630Z,11.18
2017-04-05T07:41:20.476Z,11.28
2017-04-05T07:42:42.312Z,11.37
2017-04-05T07:44:04.445Z,11.43
2017-04-05T07:45:26.607Z,11.69
2017-04-05T07:46:49.120Z,11.72
2017-04-05T07:48:10.997Z,12.2
2017-04-05T07:49:33.499Z,12.37
2017-04-05T07:50:55.339Z,12.42
2017-04-05T07:52:17.518Z,12.29
2017-04-05T07:53:39.678Z,12.27
2017-04-05T07:55:01.809Z,12.38
2017-04-05T07:56:23.651Z,12.35
2017-04-05T07:57:46.198Z,12.64
2017-04-05T07:59:08.054Z,12.72
2017-04-05T08:00:29.862Z,12.75
2017-04-05T08:01:52.010Z,12.89
2017-04-05T08:03:14.208Z,12.97
2017-04-05T08:04:36.369Z,13.22
2017-04-05T08:05:58.508Z,13.22
2017-04-05T08:07:20.038Z,13.23
2017-04-05T08:08:42.008Z,13.23
2017-04-05T08:10:04.172Z,13.14
2017-04-05T08:11:26.966Z,13.01
2017-04-05T08:12:48.471Z,12.74
2017-04-05T08:14:09.993Z,12.53
2017-04-05T08:15:31.508Z,12.35
2017-04-05T08:16:53.679Z,12.34
2017-04-05T08:18:15.509Z,12.39
2017-04-05T08:19:37.676Z,12.52
2017-04-05T08:20:59.228Z,12.52
2017-04-05T08:22:21.738Z,12.53
2017-04-05T08:23:43.900Z,12.35
2017-04-05T08:25:06.076Z,12.07
2017-04-05T08:26:28.249Z,11.96
2017-04-05T08:27:50.406Z,11.61
2017-04-05T08:29:12.547Z,11.98
2017-04-05T08:30:34.058Z,12.27
2017-04-05T08:31:55.886Z,12.53
2017-04-05T08:33:18.344Z,12.6
2017-04-05T08:34:40.245Z,12.67
2017-04-05T08:36:02.855Z,12.87
2017-04-05T08:37:25.375Z,12.87
2017-04-05T08:38:47.526Z,13
2017-04-05T08:40:10.064Z,12.74
2017-04-05T08:41:32.703Z,12.6
2017-04-05T08:42:54.542Z,12.71
2017-04-05T08:44:17.392Z,12.59
2017-04-05T08:45:39.577Z,12.52
2017-04-05T08:47:00.807Z,12.5
2017-04-05T08:48:22.818Z,12.7
2017-04-05T08:49:45.107Z,12.65
2017-04-05T08:51:07.260Z,12.74
2017-04-05T08:52:28.772Z,12.71
2017-04-05T08:53:50.605Z,12.87
2017-04-05T08:55:13.378Z,12.86
2017-04-05T08:56:35.535Z,12.75
2017-04-05T08:57:57.066Z,12.85
2017-04-05T08:59:18.318Z,12.87
2017-04-05T09:00:40.446Z,13.05
2017-04-05T09:02:02.986Z,13.32
2017-04-05T09:03:24.828Z,13.32
2017-04-05T09:04:46.661Z,13.32
2017-04-05T09:06:08.852Z,13.41
2017-04-05T09:07:31.104Z,13.52
2017-04-05T09:08:53.250Z,13.59
2017-04-05T09:10:15.377Z,13.44
2017-04-05T09:11:37.536Z,13.3
2017-04-05T09:12:59.376Z,13.54
2017-04-05T09:14:21.226Z,13.54
2017-04-05T09:15:42.813Z,13.54
2017-04-05T09:17:05.268Z,13.79
2017-04-05T09:18:27.731Z,13.95
2017-04-05T09:19:49.892Z,14.14
2017-04-05T09:21:12.126Z,14.07
2017-04-05T09:22:34.638Z,14.22
2017-04-05T09:23:57.116Z,14.22
2017-04-05T09:25:18.941Z,14.33
2017-04-05T09:26:41.418Z,14.2
2017-04-05T09:28:03.978Z,14.07
2017-04-05T09:29:26.126Z,14.06
2017-04-05T09:30:48.601Z,14.06
2017-04-05T09:32:10.805Z,13.97
2017-04-05T09:33:33.216Z,13.82
2017-04-05T09:34:55.108Z,13.63
2017-04-05T09:36:16.957Z,13.78
2017-04-05T09:37:39.102Z,13.95
2017-04-05T09:39:00.927Z,14.12
2017-04-05T09:40:23.130Z,14.36
2017-04-05T09:41:45.006Z,14.8
2017-04-05T09:43:06.825Z,14.99
2017-04-05T09:44:28.667Z,14.98
2017-04-05T09:45:51.137Z,15.06
2017-04-05T09:47:13.680Z,15.11
2017-04-05T09:48:35.850Z,15.16
2017-04-05T09:49:58.030Z,15.34
2017-04-05T09:51:19.618Z,15.46
2017-04-05T09:52:42.184Z,15.2
2017-04-05T09:54:04.357Z,15.19
2017-04-05T09:55:26.944Z,15.2
2017-04-05T09:56:48.776Z,15.44
2017-04-05T09:58:10.296Z,15.32
2017-04-05T09:59:32.231Z,14.88
2017-04-05T10:00:54.363Z,14.57
2017-04-05T10:02:16.205Z,14.42
2017-04-05T10:03:38.069Z,14.25
2017-04-05T10:04:59.354Z,14.2
2017-04-05T10:06:21.500Z,14.37
2017-04-05T10:07:43.742Z,13.62
2017-04-05T10:09:05.271Z,13.73
2017-04-05T10:10:26.639Z,13.75
2017-04-05T10:11:48.818Z,13.96
2017-04-05T10:13:10.804Z,14.06
2017-04-05T10:14:32.622Z,14.04
2017-04-05T10:15:55.096Z,14.02
2017-04-05T10:17:17.874Z,14.07
2017-04-05T10:18:40.038Z,13.79
2017-04-05T10:20:02.526Z,13.71
2017-04-05T10:21:24.719Z,13.52
2017-04-05T10:22:47.254Z,13.55
2017-04-05T10:24:08.826Z,13.6
2017-04-05T10:25:31.135Z,13.73
2017-04-05T10:26:53.380Z,13.88
2017-04-05T10:28:15.575Z,14.18
2017-04-05T10:29:37.447Z,14.22
2017-04-05T10:30:59.936Z,14.07
2017-04-05T10:32:21.777Z,14.35
2017-04-05T10:33:43.924Z,14.61
2017-04-05T10:35:05.757Z,14.65
2017-04-05T10:36:28.042Z,14.65
2017-04-05T10:37:50.216Z,14.68
2017-04-05T10:39:12.671Z,14.6
2017-04-05T10:40:34.199Z,14.33
2017-04-05T10:41:56.022Z,14.33
2017-04-05T10:43:17.868Z,14.28
2017-04-05T10:44:40.386Z,14.24
2017-04-05T10:46:02.265Z,14.24
2017-04-05T10:47:24.497Z,14.17
2017-04-05T10:48:46.785Z,13.89
2017-04-05T10:50:09.089Z,13.59
2017-04-05T10:51:31.325Z,13.6
2017-04-05T10:52:52.555Z,13.46
2017-04-05T10:54:14.706Z,13.54
2017-04-05T10:55:36.783Z,13.62
2017-04-05T10:56:58.935Z,13.79
2017-04-05T10:58:20.782Z,13.85
2017-04-05T10:59:42.317Z,13.64
2017-04-05T11:01:04.486Z,13.54
2017-04-05T11:02:26.074Z,13.75
2017-04-05T11:03:47.934Z,13.77
2017-04-05T11:05:10.086Z,13.51
2017-04-05T11:06:32.266Z,13.51
2017-04-05T11:07:53.790Z,13.42
2017-04-05T11:09:15.299Z,13.63
2017-04-05T11:10:36.798Z,13.95
2017-04-05T11:11:59.268Z,13.96
2017-04-05T11:13:20.831Z,14.07
2017-04-05T11:14:43.026Z,14.17
2017-04-05T11:16:04.865Z,14.06
2017-04-05T11:17:27.265Z,13.75
2017-04-05T11:18:49.206Z,13.6
2017-04-05T11:20:11.136Z,13.49
2017-04-05T11:21:33.030Z,13.59
2017-04-05T11:22:55.759Z,13.52
2017-04-05T11:24:18.376Z,13.77
2017-04-05T11:25:40.513Z,13.71
2017-04-05T11:27:02.339Z,13.69
2017-04-05T11:28:24.865Z,13.59
2017-04-05T11:29:46.716Z,13.57
2017-04-05T11:31:08.843Z,13.63
2017-04-05T11:32:30.795Z,13.75
2017-04-05T11:33:53.346Z,13.82
2017-04-05T11:35:15.483Z,14.02
2017-04-05T11:36:37.661Z,14.02
2017-04-05T11:37:59.516Z,13.92
2017-04-05T11:39:21.959Z,14.27
2017-04-05T11:40:43.801Z,14.1
2017-04-05T11:42:05.655Z,14.27
2017-04-05T11:43:27.528Z,13.79
2017-04-05T11:44:50.043Z,13.7
2017-04-05T11:46:11.883Z,13.3
2017-04-05T11:47:34.036Z,13.33
2017-04-05T11:48:55.873Z,13.29
2017-04-05T11:50:18.051Z,13.04
2017-04-05T11:51:39.626Z,13.12
2017-04-05T11:53:01.547Z,13.08
2017-04-05T11:54:23.370Z,13.08
2017-04-05T11:55:45.814Z,13.3
2017-04-05T11:57:07.649Z,13.42
2017-04-05T11:58:29.526Z,13.2
2017-04-05T11:59:51.706Z,12.95
2017-04-05T12:01:13.676Z,13
2017-04-05T12:02:36.216Z,13.07
2017-04-05T12:03:58.533Z,12.77
2017-04-05T12:05:20.374Z,12.85
2017-04-05T12:06:41.965Z,12.64
2017-04-05T12:08:04.454Z,12.49
2017-04-05T12:09:27.034Z,12.56
2017-04-05T12:10:48.863Z,12.52
2017-04-05T12:12:10.468Z,12.38
2017-04-05T12:13:31.968Z,12.38
2017-04-05T12:14:54.137Z,12.32
2017-04-05T12:16:16.296Z,12.28
2017-04-05T12:17:38.905Z,12.39
2017-04-05T12:19:00.758Z,12.42
2017-04-05T12:20:23.035Z,12.39
2017-04-05T12:21:45.190Z,12.39
2017-04-05T12:23:07.323Z,12.39
2017-04-05T12:24:29.169Z,12.39
2017-04-05T12:25:50.686Z,12.28
2017-04-05T12:27:13.216Z,12.27
2017-04-05T12:28:35.696Z,12.14
2017-04-05T12:29:57.531Z,12.1
2017-04-05T12:31:19.056Z,11.98
2017-04-05T12:32:41.538Z,11.98
2017-04-05T12:34:04.067Z,11.86
2017-04-05T12:35:26.046Z,11.8
2017-04-05T12:36:47.951Z,11.79
2017-04-05T12:38:09.790Z,11.6
2017-04-05T12:39:32.242Z,11.55
2017-04-05T12:40:54.758Z,11.55
2017-04-05T12:42:17.047Z,11.7
2017-04-05T12:44:59.494Z,11.75
2017-04-05T12:46:21.675Z,11.78
2017-04-05T12:47:43.519Z,11.98
2017-04-05T12:49:05.401Z,12.04
2017-04-05T12:50:27.890Z,12.07
2017-04-05T12:51:50.455Z,12.12
2017-04-05T12:53:12.683Z,12.19
2017-04-05T12:54:34.519Z,12.31
2017-04-05T12:55:57.280Z,12.53
2017-04-05T12:57:19.431Z,12.77
2017-04-05T12:58:41.466Z,12.96
2017-04-05T13:00:03.290Z,13.2
2017-04-05T13:01:25.541Z,13.32
2017-04-05T13:02:48.016Z,13.3
2017-04-05T13:04:09.928Z,13.36
2017-04-05T13:05:32.379Z,13.3
2017-04-05T13:06:54.517Z,13.14
2017-04-05T13:08:16.677Z,13.22
2017-04-05T13:09:39.142Z,13.23
2017-04-05T13:11:00.988Z,13.45
2017-04-05T13:12:23.815Z,13.49
2017-04-05T13:13:46.031Z,13.45
2017-04-05T13:15:08.170Z,13.55
2017-04-05T13:16:30.576Z,13.38
2017-04-05T13:17:52.778Z,13.55
2017-04-05T13:19:14.289Z,13.33
2017-04-05T13:20:36.442Z,13.38
2017-04-05T13:21:58.974Z,13.15
2017-04-05T13:23:20.878Z,13.54
2017-04-05T13:24:42.881Z,13.41
2017-04-05T13:26:04.751Z,13.55
2017-04-05T13:27:26.795Z,13.41
2017-04-05T13:28:49.636Z,13.29
2017-04-05T13:30:12.096Z,13.38
2017-04-05T13:31:33.309Z,13.25
2017-04-05T13:32:55.465Z,13.41
2017-04-05T13:34:17.932Z,13.45
2017-04-05T13:35:40.417Z,13.42
2017-04-05T13:37:02.915Z,13.32
2017-04-05T13:38:25.094Z,13.2
2017-04-05T13:39:47.978Z,13.23
2017-04-05T13:41:10.159Z,13.15
2017-04-05T13:42:32.654Z,12.78
2017-04-05T13:43:55.134Z,12.86
2017-04-05T13:45:18.043Z,13.14
2017-04-05T13:46:39.701Z,13.26
2017-04-05T13:48:01.536Z,13.25
2017-04-05T13:49:22.729Z,13.05
2017-04-05T13:50:44.998Z,12.74
2017-04-05T13:52:06.879Z,12.47
2017-04-05T13:53:29.409Z,12.64
2017-04-05T13:54:51.923Z,12.9
2017-04-05T13:56:14.826Z,12.93
2017-04-05T13:57:37.325Z,13.12
2017-04-05T13:58:59.255Z,13.36
2017-04-05T14:00:21.721Z,13.48
2017-04-05T14:01:43.876Z,13.48
2017-04-05T14:03:06.038Z,13.42
2017-04-05T14:04:27.893Z,13.41
2017-04-05T14:05:50.060Z,13.15
2017-04-05T14:07:12.546Z,13.03
2017-04-05T14:08:35.019Z,13.07
2017-04-05T14:09:56.855Z,13
2017-04-05T14:11:19.369Z,12.77
2017-04-05T14:12:41.211Z,12.72
2017-04-05T14:14:03.661Z,12.59
2017-04-05T14:15:26.247Z,12.39
2017-04-05T14:16:48.403Z,12.21
2017-04-05T14:18:10.620Z,12.09
2017-04-05T14:19:32.852Z,12.14
2017-04-05T14:20:54.689Z,12.1
2017-04-05T14:22:17.160Z,12.27
2017-04-05T14:23:39.678Z,12.34
2017-04-05T14:25:01.823Z,12.34
2017-04-05T14:26:23.789Z,12.41
2017-04-05T14:27:45.986Z,12.41
2017-04-05T14:29:08.492Z,12.28
2017-04-05T14:30:30.666Z,11.91
2017-04-05T14:31:52.818Z,11.76
2017-04-05T14:33:14.337Z,11.37
2017-04-05T14:34:36.576Z,11.36
2017-04-05T14:35:58.804Z,11.52
2017-04-05T14:37:21.106Z,11.67
2017-04-05T14:38:43.296Z,11.58
2017-04-05T14:40:05.824Z,11.57
2017-04-05T14:41:27.953Z,11.75
2017-04-05T14:42:49.190Z,11.82
2017-04-05T14:44:11.387Z,11.75
2017-04-05T14:45:34.177Z,11.86
2017-04-05T14:46:56.170Z,11.95
2017-04-05T14:48:18.654Z,11.91
2017-04-05T14:49:40.812Z,11.96
2017-04-05T14:51:03.389Z,12.09
2017-04-05T14:52:24.617Z,12.14
2017-04-05T14:53:47.146Z,12.24
2017-04-05T14:55:09.290Z,12.31
2017-04-05T14:56:31.403Z,12.49
2017-04-05T14:57:53.353Z,12.72
2017-04-05T14:59:15.323Z,13
2017-04-05T15:00:37.822Z,13.25
2017-04-05T15:02:00.295Z,13.36
2017-04-05T15:03:22.239Z,13.48
2017-04-05T15:04:44.804Z,13.39
2017-04-05T15:06:06.978Z,13.44
2017-04-05T15:07:29.794Z,13.45
2017-04-05T15:08:52.269Z,13.44
2017-04-05T15:10:14.224Z,13.49
2017-04-05T15:11:36.727Z,13.3
2017-04-05T15:12:59.385Z,12.95
2017-04-05T15:14:20.928Z,12.52
2017-04-05T15:15:43.149Z,12.54
2017-04-05T15:17:04.661Z,12.62
2017-04-05T15:18:27.176Z,12.85
2017-04-05T15:19:49.400Z,12.78
2017-04-05T15:21:11.908Z,12.95
2017-04-05T15:22:34.069Z,13.26
2017-04-05T15:23:56.854Z,13.45
2017-04-05T15:25:18.713Z,13.59
2017-04-05T15:26:40.600Z,13.25
2017-04-05T15:28:03.076Z,12.96
2017-04-05T15:29:25.330Z,12.71
2017-04-05T15:30:47.225Z,12.29
2017-04-05T15:32:09.399Z,11.88
2017-04-05T15:33:31.589Z,11.86
2017-04-05T15:34:54.393Z,11.6
2017-04-05T15:36:16.219Z,11.65
2017-04-05T15:37:37.742Z,11.46
2017-04-05T15:38:59.568Z,11.46
2017-04-05T15:40:22.072Z,11.43
2017-04-05T15:41:44.286Z,11.7
2017-04-05T15:43:06.640Z,11.42
2017-04-05T15:44:28.514Z,11.33
2017-04-05T15:45:51.206Z,11.35
2017-04-05T15:47:12.416Z,11.46
2017-04-05T15:48:34.576Z,11.4
2017-04-05T15:49:56.476Z,11.35
2017-04-05T15:51:18.328Z,11.21
2017-04-05T15:52:40.595Z,11.28
2017-04-05T15:54:02.544Z,11.21
2017-04-05T15:55:24.723Z,11.29
2017-04-05T15:56:46.885Z,11.4
2017-04-05T15:58:08.767Z,11.47
2017-04-05T15:59:31.265Z,11.49
2017-04-05T16:00:53.482Z,11.65
2017-04-05T16:02:15.335Z,11.64
2017-04-05T16:03:37.188Z,11.42
2017-04-05T16:04:59.340Z,11.32
2017-04-05T16:06:21.280Z,11.32
2017-04-05T16:07:43.785Z,11.14
2017-04-05T16:09:05.303Z,11.07
2017-04-05T16:10:27.539Z,10.94
2017-04-05T16:11:49.383Z,10.88
2017-04-05T16:13:12.256Z,10.88
2017-04-05T16:14:34.179Z,10.86
2017-04-05T16:15:56.145Z,10.85
2017-04-05T16:17:18.641Z,10.86
2017-04-05T16:18:40.910Z,10.88
2017-04-05T16:20:02.818Z,10.82
2017-04-05T16:21:24.758Z,10.89
2017-04-05T16:22:46.836Z,11.04
2017-04-05T16:24:09.161Z,11.09
2017-04-05T16:25:31.568Z,11.21
2017-04-05T16:26:53.422Z,11.33
2017-04-05T16:28:15.653Z,11.36
2017-04-05T16:29:38.407Z,11.37
2017-04-05T16:31:00.556Z,11.39
2017-04-05T16:32:22.945Z,11.58
2017-04-05T16:33:44.763Z,11.64
2017-04-05T16:35:06.959Z,11.7
2017-04-05T16:36:29.120Z,11.67
2017-04-05T16:37:50.954Z,11.61
2017-04-05T16:39:13.092Z,11.57
2017-04-05T16:40:35.556Z,11.33
2017-04-05T16:41:57.734Z,11.17
2017-04-05T16:43:19.926Z,10.85
2017-04-05T16:44:42.063Z,10.67
2017-04-05T16:46:04.828Z,10.84
2017-04-05T16:47:27.318Z,10.79
2017-04-05T16:48:49.785Z,10.89
2017-04-05T16:50:11.602Z,10.86
2017-04-05T16:51:34.431Z,11.17
2017-04-05T16:52:57.061Z,11.19
2017-04-05T16:54:19.539Z,11.27
2017-04-05T16:55:41.387Z,11.29
2017-04-05T16:57:04.218Z,11.22
2017-04-05T16:58:26.791Z,11.04
2017-04-05T16:59:49.335Z,10.96
2017-04-05T17:01:10.855Z,10.73
2017-04-05T17:02:33.391Z,10.53
2017-04-05T17:03:55.886Z,10.48
2017-04-05T17:05:17.758Z,10.4
2017-04-05T17:06:40.269Z,10.34
2017-04-05T17:08:02.987Z,10.38
2017-04-05T17:09:25.486Z,10.52
2017-04-05T17:10:47.662Z,10.59
2017-04-05T17:12:10.154Z,10.52
2017-04-05T17:13:33.233Z,10.41
2017-04-05T17:14:55.417Z,10.52
2017-04-05T17:16:17.408Z,10.44
2017-04-05T17:17:39.966Z,10.42
2017-04-05T17:19:02.482Z,10.22
2017-04-05T17:20:24.743Z,10.08
2017-04-05T17:21:46.699Z,9.94
2017-04-05T17:23:08.966Z,9.93
2017-04-05T17:24:31.548Z,9.79
2017-04-05T17:25:53.414Z,9.71
2017-04-05T17:27:14.969Z,9.57
2017-04-05T17:28:37.166Z,9.58
2017-04-05T17:29:59.966Z,9.54
2017-04-05T17:31:22.459Z,9.58
2017-04-05T17:32:44.979Z,9.58
2017-04-05T17:34:07.072Z,9.57
2017-04-05T17:35:29.925Z,9.58
2017-04-05T17:36:52.530Z,9.68
2017-04-05T17:38:15.018Z,9.69
2017-04-05T17:39:37.220Z,9.68
2017-04-05T17:41:00.129Z,9.65
2017-04-05T17:42:22.723Z,9.66
2017-04-05T17:43:44.875Z,9.57
2017-04-05T17:45:07.041Z,9.56
2017-04-05T17:46:29.501Z,9.64
2017-04-05T17:47:52.089Z,9.68
2017-04-05T17:49:14.273Z,9.66
2017-04-05T17:50:36.766Z,9.68
2017-04-05T17:51:59.538Z,9.66
2017-04-05T17:53:21.380Z,9.57
2017-04-05T17:54:44.045Z,9.61
2017-04-05T17:56:06.567Z,9.57
2017-04-05T17:57:29.486Z,9.46
2017-04-05T17:58:51.756Z,9.42